Time;durP1;ratioP1;P1;durP2;ratioP2;P2;SDS_P1;SDS_P2;PMS_P1;PMS_P2;Temp;Humidity;BMP_temperature;BMP_pressure;BME280_temperature;BME280_humidity;BME280_pressure;Samples;Min_cycle;Max_cycle;Signal;HPM_P1;HPM_P2
2022/12/10 00:01:44;;;;;;;308.80;43.45;;;;;;;;;;5066595;28;20379;-70
2022/12/10 00:04:12;;;;;;;353.13;45.88;;;;;;;;;;5064939;28;20045;-70
2022/12/10 00:06:40;;;;;;;342.73;44.95;;;;;;;;;;5076581;28;20063;-70
2022/12/10 00:09:08;;;;;;;401.20;51.33;;;;;;;;;;5073813;28;20092;-70
2022/12/10 00:11:37;;;;;;;358.30;48.78;;;;;;;;;;5064738;28;20103;-71
2022/12/10 00:14:04;;;;;;;278.73;45.90;;;;;;;;;;5067284;28;20052;-70
2022/12/10 00:16:33;;;;;;;378.92;50.80;;;;;;;;;;5060924;28;20585;-71
2022/12/10 00:19:00;;;;;;;368.45;51.08;;;;;;;;;;5068874;28;20049;-71
2022/12/10 00:21:28;;;;;;;312.77;52.38;;;;;;;;;;5059717;28;20075;-71
2022/12/10 00:23:56;;;;;;;281.83;48.42;;;;;;;;;;5070030;28;20479;-71
2022/12/10 00:26:24;;;;;;;292.33;51.67;;;;;;;;;;5045981;28;20160;-71
2022/12/10 00:28:53;;;;;;;291.27;52.28;;;;;;;;;;5067497;28;20530;-71
2022/12/10 00:31:21;;;;;;;283.08;48.92;;;;;;;;;;5062716;28;20045;-72
2022/12/10 00:33:49;;;;;;;283.15;54.35;;;;;;;;;;5067829;28;20044;-72
2022/12/10 00:36:17;;;;;;;287.60;58.17;;;;;;;;;;5063666;28;20052;-71
2022/12/10 00:38:45;;;;;;;251.95;51.10;;;;;;;;;;5067960;28;20048;-71
2022/12/10 00:41:12;;;;;;;249.65;49.17;;;;;;;;;;5067959;28;20060;-71
2022/12/10 00:43:40;;;;;;;230.73;50.97;;;;;;;;;;5054620;28;20053;-71
2022/12/10 00:46:08;;;;;;;241.50;53.22;;;;;;;;;;5035001;28;20049;-71
2022/12/10 00:48:36;;;;;;;234.27;54.22;;;;;;;;;;5047579;28;20076;-71
2022/12/10 00:51:05;;;;;;;223.05;51.08;;;;;;;;;;5048021;28;20064;-71
2022/12/10 00:53:33;;;;;;;214.95;51.28;;;;;;;;;;5043419;28;20061;-71
2022/12/10 00:56:00;;;;;;;211.85;52.42;;;;;;;;;;5046587;28;20060;-71
2022/12/10 00:58:28;;;;;;;198.10;50.50;;;;;;;;;;5050695;28;20053;-71
2022/12/10 01:00:55;;;;;;;200.52;51.97;;;;;;;;;;5050103;28;20048;-70
2022/12/10 01:03:24;;;;;;;213.05;52.92;;;;;;;;;;5048601;28;20053;-71
2022/12/10 01:05:51;;;;;;;193.65;51.42;;;;;;;;;;5047941;28;20400;-71
2022/12/10 01:08:18;;;;;;;187.57;49.33;;;;;;;;;;5046435;28;20057;-70
2022/12/10 01:10:47;;;;;;;178.45;48.45;;;;;;;;;;5037527;28;20658;-71
2022/12/10 01:13:14;;;;;;;185.75;50.88;;;;;;;;;;5053356;28;20049;-71
2022/12/10 01:15:41;;;;;;;186.75;51.63;;;;;;;;;;5046430;28;20053;-71
2022/12/10 01:18:08;;;;;;;192.27;50.63;;;;;;;;;;5027028;28;20059;-71
2022/12/10 01:20:38;;;;;;;182.65;48.30;;;;;;;;;;5033016;28;20131;-71
2022/12/10 01:23:05;;;;;;;174.02;49.08;;;;;;;;;;5048114;28;20052;-71
2022/12/10 01:25:32;;;;;;;189.10;49.83;;;;;;;;;;5044742;28;20060;-71
2022/12/10 01:27:59;;;;;;;177.13;48.67;;;;;;;;;;5041883;28;20460;-70
2022/12/10 01:30:27;;;;;;;168.02;48.50;;;;;;;;;;5047908;28;20052;-71
2022/12/10 01:32:54;;;;;;;163.18;46.60;;;;;;;;;;5046396;28;20049;-71
2022/12/10 01:35:21;;;;;;;165.55;48.08;;;;;;;;;;5050780;28;20569;-71
2022/12/10 01:37:51;;;;;;;171.88;49.13;;;;;;;;;;5047525;28;20052;-71
2022/12/10 01:40:18;;;;;;;162.50;46.05;;;;;;;;;;5052921;28;20049;-71
2022/12/10 01:42:45;;;;;;;179.93;48.55;;;;;;;;;;5052629;28;20319;-71
2022/12/10 01:45:13;;;;;;;175.32;49.28;;;;;;;;;;5065607;28;20060;-71
2022/12/10 01:47:41;;;;;;;157.32;47.35;;;;;;;;;;5048261;28;20056;-71
2022/12/10 01:50:09;;;;;;;159.88;46.83;;;;;;;;;;5068115;28;20056;-71
2022/12/10 01:52:37;;;;;;;164.60;50.90;;;;;;;;;;5065024;28;20082;-71
2022/12/10 01:55:09;;;;;;;154.45;46.20;;;;;;;;;;5064473;28;20048;-71
2022/12/10 01:57:36;;;;;;;147.70;46.00;;;;;;;;;;5055131;28;20048;-71
2022/12/10 02:00:07;;;;;;;154.55;46.60;;;;;;;;;;5041645;28;20057;-71
2022/12/10 02:02:43;;;;;;;152.55;46.00;;;;;;;;;;5050480;28;20087;-71
2022/12/10 02:05:16;;;;;;;153.75;46.13;;;;;;;;;;5063990;28;20043;-71
2022/12/10 02:07:53;;;;;;;152.38;46.45;;;;;;;;;;5068078;28;20051;-71
2022/12/10 02:10:25;;;;;;;163.50;45.38;;;;;;;;;;5046477;28;20047;-71
2022/12/10 02:12:55;;;;;;;143.00;45.75;;;;;;;;;;5056331;28;20132;-71
2022/12/10 02:15:24;;;;;;;145.88;45.10;;;;;;;;;;5061254;28;20045;-71
2022/12/10 02:17:53;;;;;;;147.40;43.67;;;;;;;;;;5063767;28;20040;-70
2022/12/10 02:20:22;;;;;;;142.43;44.45;;;;;;;;;;5045782;28;20053;-71
2022/12/10 02:22:51;;;;;;;138.88;44.20;;;;;;;;;;5069700;28;20048;-71
2022/12/10 02:25:20;;;;;;;145.20;43.22;;;;;;;;;;5048952;28;20128;-70
2022/12/10 02:27:50;;;;;;;136.40;42.72;;;;;;;;;;5059775;28;20063;-71
2022/12/10 02:30:19;;;;;;;137.95;43.63;;;;;;;;;;5071282;28;20055;-70
2022/12/10 02:32:48;;;;;;;128.15;42.63;;;;;;;;;;5050151;28;20048;-71
2022/12/10 02:35:17;;;;;;;127.97;43.65;;;;;;;;;;5073793;28;20047;-71
2022/12/10 02:37:47;;;;;;;137.40;42.90;;;;;;;;;;5039714;28;20048;-71
2022/12/10 02:40:17;;;;;;;125.05;40.92;;;;;;;;;;5065187;28;20048;-71
2022/12/10 02:42:48;;;;;;;133.55;43.05;;;;;;;;;;5065326;28;20144;-71
2022/12/10 02:45:15;;;;;;;129.90;43.42;;;;;;;;;;5071946;28;20039;-71
2022/12/10 02:47:44;;;;;;;136.77;42.75;;;;;;;;;;5059102;28;20055;-71
2022/12/10 02:50:12;;;;;;;140.07;43.30;;;;;;;;;;5065931;28;20060;-71
2022/12/10 02:52:39;;;;;;;133.10;42.60;;;;;;;;;;5064500;28;20045;-71
2022/12/10 02:55:07;;;;;;;133.80;41.97;;;;;;;;;;5065967;28;20044;-71
2022/12/10 02:57:37;;;;;;;129.32;42.30;;;;;;;;;;5064634;28;20045;-71
2022/12/10 03:00:07;;;;;;;130.98;42.95;;;;;;;;;;5063462;28;20052;-71
2022/12/10 03:02:40;;;;;;;127.93;42.65;;;;;;;;;;5064127;28;20052;-71
2022/12/10 03:05:12;;;;;;;135.77;42.40;;;;;;;;;;5052636;28;20048;-71
2022/12/10 03:07:40;;;;;;;134.32;42.85;;;;;;;;;;5058475;28;20060;-71
2022/12/10 03:10:11;;;;;;;145.52;43.40;;;;;;;;;;5069490;28;20049;-71
2022/12/10 03:12:40;;;;;;;140.13;44.13;;;;;;;;;;5072619;28;20052;-71
2022/12/10 03:15:10;;;;;;;151.95;44.20;;;;;;;;;;5068036;28;20143;-71
2022/12/10 03:17:38;;;;;;;188.63;45.97;;;;;;;;;;5069667;28;20588;-71
2022/12/10 03:20:08;;;;;;;208.32;46.78;;;;;;;;;;5051152;28;20107;-71
2022/12/10 03:22:38;;;;;;;212.85;47.63;;;;;;;;;;5064302;28;20388;-71
2022/12/10 03:25:06;;;;;;;242.07;50.88;;;;;;;;;;5068551;28;20040;-71
2022/12/10 03:27:34;;;;;;;308.88;45.35;;;;;;;;;;5052387;28;20304;-70
2022/12/10 03:30:02;;;;;;;292.75;49.97;;;;;;;;;;5071602;28;20059;-71
2022/12/10 03:32:29;;;;;;;290.13;47.03;;;;;;;;;;5072332;28;20049;-71
2022/12/10 03:34:59;;;;;;;288.55;47.53;;;;;;;;;;5067999;28;20403;-70
2022/12/10 03:37:27;;;;;;;270.25;47.25;;;;;;;;;;5067801;28;20632;-71
2022/12/10 03:39:56;;;;;;;337.40;48.33;;;;;;;;;;5062875;28;20059;-71
2022/12/10 03:42:23;;;;;;;380.15;52.22;;;;;;;;;;5044701;28;20084;-71
2022/12/10 03:44:51;;;;;;;259.25;46.95;;;;;;;;;;5045115;28;20064;-71
2022/12/10 03:47:19;;;;;;;240.00;45.40;;;;;;;;;;5051387;28;20049;-71
2022/12/10 03:49:46;;;;;;;371.55;53.15;;;;;;;;;;5041499;28;20350;-71
2022/12/10 03:52:14;;;;;;;329.80;48.92;;;;;;;;;;5047786;28;20061;-71
2022/12/10 03:54:41;;;;;;;388.38;51.90;;;;;;;;;;5046853;28;20045;-70
2022/12/10 03:57:09;;;;;;;381.00;48.28;;;;;;;;;;5040872;28;20045;-71
2022/12/10 03:59:37;;;;;;;440.65;50.45;;;;;;;;;;5041732;28;20071;-70
2022/12/10 04:02:04;;;;;;;387.17;48.60;;;;;;;;;;5046651;28;20053;-71
2022/12/10 04:04:32;;;;;;;342.80;44.60;;;;;;;;;;5037476;28;20044;-71
2022/12/10 04:06:59;;;;;;;363.40;44.67;;;;;;;;;;5047067;28;20064;-71
2022/12/10 04:09:26;;;;;;;406.67;44.95;;;;;;;;;;5051202;28;20056;-71
2022/12/10 04:11:56;;;;;;;392.58;44.33;;;;;;;;;;5049418;28;20048;-71
2022/12/10 04:17:10;;;;;;;306.52;39.17;;;;;;;;;;5040547;28;20136;-71
2022/12/10 04:19:37;;;;;;;416.70;43.08;;;;;;;;;;5044477;28;20056;-71
2022/12/10 04:27:37;;;;;;;371.10;41.05;;;;;;;;;;5053808;28;20053;-71
2022/12/10 04:30:06;;;;;;;422.45;47.28;;;;;;;;;;5047703;28;20665;-71
2022/12/10 04:32:33;;;;;;;382.33;42.78;;;;;;;;;;5046715;28;20487;-71
2022/12/10 04:35:01;;;;;;;447.35;45.92;;;;;;;;;;5051579;28;20036;-71
2022/12/10 04:37:28;;;;;;;378.63;43.47;;;;;;;;;;5051800;28;20602;-71
2022/12/10 04:39:56;;;;;;;415.90;42.53;;;;;;;;;;5051559;28;20208;-71
2022/12/10 04:42:23;;;;;;;385.50;40.30;;;;;;;;;;5050355;28;20444;-71
2022/12/10 04:44:51;;;;;;;512.97;42.17;;;;;;;;;;5040432;28;20044;-71
2022/12/10 04:47:19;;;;;;;459.40;42.67;;;;;;;;;;5043123;28;20057;-71
2022/12/10 04:49:47;;;;;;;363.10;37.00;;;;;;;;;;5044311;28;20048;-71
2022/12/10 04:52:14;;;;;;;470.38;39.47;;;;;;;;;;5040605;28;20045;-71
2022/12/10 04:54:42;;;;;;;353.63;33.58;;;;;;;;;;5040489;28;20045;-71
2022/12/10 04:57:10;;;;;;;379.42;36.13;;;;;;;;;;5041256;28;20083;-71
2022/12/10 04:59:38;;;;;;;342.60;33.40;;;;;;;;;;5041205;28;20044;-70
2022/12/10 05:02:05;;;;;;;402.73;35.22;;;;;;;;;;5035073;28;20064;-71
2022/12/10 05:04:34;;;;;;;334.27;32.13;;;;;;;;;;5032709;28;20492;-71
2022/12/10 05:07:01;;;;;;;385.70;33.33;;;;;;;;;;5043620;28;20521;-71
2022/12/10 05:09:28;;;;;;;291.10;28.60;;;;;;;;;;5046177;28;20068;-71
2022/12/10 05:11:56;;;;;;;348.73;34.97;;;;;;;;;;5041866;28;20045;-71
2022/12/10 05:14:23;;;;;;;289.40;30.02;;;;;;;;;;5036087;28;20590;-71
2022/12/10 05:16:51;;;;;;;380.77;32.08;;;;;;;;;;5041168;28;20060;-71
2022/12/10 05:19:19;;;;;;;339.73;32.00;;;;;;;;;;5039222;28;20052;-70
2022/12/10 05:24:35;;;;;;;281.38;29.67;;;;;;;;;;5045676;28;20045;-71
2022/12/10 05:27:02;;;;;;;281.95;27.83;;;;;;;;;;5043042;28;20052;-71
2022/12/10 05:29:29;;;;;;;274.35;29.52;;;;;;;;;;5038104;28;20060;-71
2022/12/10 05:31:56;;;;;;;255.85;27.95;;;;;;;;;;5045647;28;20082;-71
2022/12/10 05:34:24;;;;;;;265.95;26.42;;;;;;;;;;5043062;28;20148;-71
2022/12/10 05:36:52;;;;;;;359.65;29.58;;;;;;;;;;5044772;28;20498;-71
2022/12/10 05:39:19;;;;;;;295.77;29.95;;;;;;;;;;5048892;28;20065;-71
2022/12/10 05:41:47;;;;;;;284.00;31.67;;;;;;;;;;5053015;28;20085;-70
2022/12/10 05:44:14;;;;;;;389.65;35.67;;;;;;;;;;5064649;28;20056;-71
2022/12/10 05:46:41;;;;;;;334.98;29.90;;;;;;;;;;5058919;28;20051;-70
2022/12/10 05:49:09;;;;;;;267.35;31.98;;;;;;;;;;5066381;28;20097;-71
2022/12/10 05:51:37;;;;;;;322.13;29.98;;;;;;;;;;5068615;28;20045;-72
2022/12/10 05:54:06;;;;;;;338.83;29.95;;;;;;;;;;5047432;28;20057;-71
2022/12/10 05:56:34;;;;;;;301.38;28.83;;;;;;;;;;5067649;28;20051;-71
2022/12/10 05:59:02;;;;;;;293.05;31.17;;;;;;;;;;5052215;28;20396;-71
2022/12/10 06:01:30;;;;;;;246.07;29.27;;;;;;;;;;5072484;28;20525;-70
2022/12/10 06:03:58;;;;;;;262.58;29.02;;;;;;;;;;5063022;28;20048;-71
2022/12/10 06:06:26;;;;;;;259.23;29.48;;;;;;;;;;5073018;28;20047;-71
2022/12/10 06:08:54;;;;;;;273.25;26.73;;;;;;;;;;5044624;28;20048;-71
2022/12/10 06:11:23;;;;;;;299.38;29.60;;;;;;;;;;5041770;28;20060;-70
2022/12/10 06:13:50;;;;;;;216.05;27.55;;;;;;;;;;5058314;28;20056;-71
2022/12/10 06:16:17;;;;;;;284.27;28.75;;;;;;;;;;5063597;28;20439;-71
2022/12/10 06:18:45;;;;;;;319.33;29.90;;;;;;;;;;5063833;28;20053;-71
2022/12/10 06:21:14;;;;;;;277.88;32.25;;;;;;;;;;5067663;28;20139;-70
2022/12/10 06:23:41;;;;;;;252.88;28.73;;;;;;;;;;5063057;28;20055;-71
2022/12/10 06:26:10;;;;;;;340.45;33.80;;;;;;;;;;5054466;28;20052;-71
2022/12/10 06:28:39;;;;;;;331.15;28.70;;;;;;;;;;5058745;28;20454;-71
2022/12/10 06:31:06;;;;;;;235.38;28.40;;;;;;;;;;5037482;28;20459;-71
2022/12/10 06:33:34;;;;;;;228.60;26.58;;;;;;;;;;5061598;28;20408;-70
2022/12/10 06:36:01;;;;;;;337.65;27.38;;;;;;;;;;5060944;28;20052;-71
2022/12/10 06:38:28;;;;;;;305.73;28.83;;;;;;;;;;5060968;28;20523;-72
2022/12/10 06:40:56;;;;;;;243.43;25.48;;;;;;;;;;5038748;28;20064;-70
2022/12/10 06:43:23;;;;;;;443.35;31.73;;;;;;;;;;5043714;28;20061;-71
2022/12/10 06:45:51;;;;;;;331.15;30.00;;;;;;;;;;5038608;28;20057;-70
2022/12/10 06:48:19;;;;;;;293.35;27.55;;;;;;;;;;5045959;28;20049;-70
2022/12/10 06:50:46;;;;;;;361.00;32.45;;;;;;;;;;5044016;28;20385;-69
2022/12/10 06:53:13;;;;;;;364.30;30.00;;;;;;;;;;5040803;28;20059;-71
2022/12/10 06:55:41;;;;;;;335.00;31.08;;;;;;;;;;5041254;28;20496;-69
2022/12/10 06:58:08;;;;;;;341.50;30.63;;;;;;;;;;5040654;28;20346;-70
2022/12/10 07:00:35;;;;;;;305.42;31.42;;;;;;;;;;5039950;28;20202;-70
2022/12/10 07:03:04;;;;;;;300.98;34.58;;;;;;;;;;5046410;28;20049;-71
2022/12/10 07:05:31;;;;;;;357.10;31.88;;;;;;;;;;5043820;28;20049;-70
2022/12/10 07:07:59;;;;;;;268.73;29.10;;;;;;;;;;5042513;28;20056;-70
2022/12/10 07:10:26;;;;;;;266.20;29.60;;;;;;;;;;5046028;28;20772;-71
2022/12/10 07:12:53;;;;;;;256.25;30.08;;;;;;;;;;5046980;28;20064;-70
2022/12/10 07:15:22;;;;;;;272.10;31.15;;;;;;;;;;5044957;28;20051;-70
2022/12/10 07:17:50;;;;;;;314.30;31.70;;;;;;;;;;5026489;28;20471;-70
2022/12/10 07:20:19;;;;;;;282.23;29.67;;;;;;;;;;5048865;28;20047;-70
2022/12/10 07:22:46;;;;;;;307.35;33.00;;;;;;;;;;5044720;28;20551;-71
2022/12/10 07:25:13;;;;;;;248.65;29.75;;;;;;;;;;5046278;28;20053;-72
2022/12/10 07:27:40;;;;;;;277.08;28.70;;;;;;;;;;5045955;28;20057;-70
2022/12/10 07:30:08;;;;;;;314.23;30.65;;;;;;;;;;5043916;28;20051;-69
2022/12/10 07:32:36;;;;;;;361.38;32.75;;;;;;;;;;5025269;28;20049;-70
2022/12/10 07:35:03;;;;;;;386.85;31.73;;;;;;;;;;5045229;28;20049;-69
2022/12/10 07:37:31;;;;;;;338.60;33.15;;;;;;;;;;5043397;28;20052;-71
2022/12/10 07:39:59;;;;;;;473.38;35.67;;;;;;;;;;5050923;28;20047;-70
2022/12/10 07:42:26;;;;;;;299.13;29.83;;;;;;;;;;5055767;28;20056;-70
2022/12/10 07:44:53;;;;;;;321.65;30.95;;;;;;;;;;5066308;28;20048;-70
2022/12/10 07:47:21;;;;;;;320.63;29.77;;;;;;;;;;5065131;28;20045;-70
2022/12/10 07:49:48;;;;;;;381.20;30.00;;;;;;;;;;5058975;28;20052;-71
2022/12/10 07:52:15;;;;;;;262.67;26.42;;;;;;;;;;5071597;28;20048;-71
2022/12/10 07:54:44;;;;;;;330.85;25.88;;;;;;;;;;5065808;28;20761;-69
2022/12/10 07:57:11;;;;;;;311.95;28.50;;;;;;;;;;5050601;28;20056;-70
2022/12/10 07:59:38;;;;;;;330.08;28.75;;;;;;;;;;5068415;28;20052;-70
2022/12/10 08:02:05;;;;;;;312.55;27.27;;;;;;;;;;5066666;28;20430;-70
2022/12/10 08:04:33;;;;;;;322.48;28.70;;;;;;;;;;5064399;28;20052;-71
2022/12/10 08:07:00;;;;;;;334.77;27.33;;;;;;;;;;5036511;28;20487;-70
2022/12/10 08:09:27;;;;;;;295.25;28.73;;;;;;;;;;5065858;28;20040;-71
2022/12/10 08:11:56;;;;;;;225.32;26.63;;;;;;;;;;5038626;28;20056;-70
2022/12/10 08:14:23;;;;;;;280.65;26.48;;;;;;;;;;5079897;28;20044;-70
2022/12/10 08:16:50;;;;;;;337.35;29.35;;;;;;;;;;5069336;28;20073;-71
2022/12/10 08:19:20;;;;;;;334.92;27.77;;;;;;;;;;5075326;28;20489;-70
2022/12/10 08:21:48;;;;;;;348.73;32.38;;;;;;;;;;5068088;28;20062;-71
2022/12/10 08:24:15;;;;;;;286.92;29.48;;;;;;;;;;5074026;28;21331;-71
2022/12/10 08:26:42;;;;;;;281.35;30.00;;;;;;;;;;5070251;28;20052;-71
2022/12/10 08:29:11;;;;;;;278.15;28.05;;;;;;;;;;5070470;28;20523;-70
2022/12/10 08:31:38;;;;;;;301.33;31.77;;;;;;;;;;5053179;28;20514;-71
2022/12/10 08:34:06;;;;;;;322.85;29.15;;;;;;;;;;5064058;28;20048;-71
2022/12/10 08:36:33;;;;;;;265.45;26.70;;;;;;;;;;5058699;28;20133;-71
2022/12/10 08:39:00;;;;;;;353.92;29.75;;;;;;;;;;5065741;28;20542;-71
2022/12/10 08:41:27;;;;;;;302.30;29.25;;;;;;;;;;5068169;28;20052;-70
2022/12/10 08:43:55;;;;;;;272.88;26.60;;;;;;;;;;5068041;28;20048;-70
2022/12/10 08:46:24;;;;;;;269.00;27.90;;;;;;;;;;5036816;28;20044;-70
2022/12/10 08:48:52;;;;;;;258.13;27.27;;;;;;;;;;5043913;28;20044;-70
2022/12/10 08:51:20;;;;;;;320.73;30.05;;;;;;;;;;5047237;28;20048;-71
2022/12/10 08:53:47;;;;;;;309.73;29.95;;;;;;;;;;5064215;28;20063;-71
2022/12/10 08:56:14;;;;;;;292.20;30.40;;;;;;;;;;5068775;28;20056;-70
2022/12/10 08:58:42;;;;;;;374.02;32.38;;;;;;;;;;5065383;28;20056;-71
2022/12/10 09:01:09;;;;;;;335.15;31.73;;;;;;;;;;5043059;28;20139;-71
2022/12/10 09:03:38;;;;;;;278.45;32.50;;;;;;;;;;5057109;28;20083;-70
2022/12/10 09:06:06;;;;;;;330.50;30.75;;;;;;;;;;5045374;28;20056;-70
2022/12/10 09:08:35;;;;;;;306.48;30.70;;;;;;;;;;5067186;28;20044;-71
2022/12/10 09:11:06;;;;;;;297.15;29.83;;;;;;;;;;5045387;28;20059;-70
2022/12/10 09:13:33;;;;;;;258.05;30.08;;;;;;;;;;5052882;28;20560;-70
2022/12/10 09:16:00;;;;;;;266.25;30.48;;;;;;;;;;5058704;28;20566;-70
2022/12/10 09:18:27;;;;;;;221.25;31.05;;;;;;;;;;5068351;28;20060;-70
2022/12/10 09:20:56;;;;;;;190.35;26.35;;;;;;;;;;5065710;28;20491;-70
2022/12/10 09:23:23;;;;;;;254.13;30.52;;;;;;;;;;5066185;28;20178;-70
2022/12/10 09:25:50;;;;;;;224.60;28.23;;;;;;;;;;5046381;28;20063;-70
2022/12/10 09:28:18;;;;;;;237.82;30.40;;;;;;;;;;5066240;28;20048;-70
2022/12/10 09:30:45;;;;;;;221.35;30.40;;;;;;;;;;5058480;28;20475;-70
2022/12/10 09:33:12;;;;;;;275.67;30.25;;;;;;;;;;5045158;28;20156;-70
2022/12/10 09:35:43;;;;;;;209.20;29.85;;;;;;;;;;5066911;28;20064;-69
2022/12/10 09:38:11;;;;;;;317.50;32.63;;;;;;;;;;5059474;28;20053;-70
2022/12/10 09:40:41;;;;;;;275.02;32.42;;;;;;;;;;5058702;28;20063;-70
2022/12/10 09:43:15;;;;;;;317.23;34.85;;;;;;;;;;5049287;28;20067;-69
2022/12/10 09:45:45;;;;;;;;;;;;;;;;;;5046763;28;20057;-70
2022/12/10 09:48:17;;;;;;;214.35;28.98;;;;;;;;;;5046627;28;19929;-71
2022/12/10 09:50:50;;;;;;;188.05;28.45;;;;;;;;;;5050228;28;20053;-71
2022/12/10 09:53:20;;;;;;;219.10;31.43;;;;;;;;;;5045515;28;20045;-71
2022/12/10 09:55:48;;;;;;;239.60;32.00;;;;;;;;;;5044758;28;20057;-70
2022/12/10 09:58:19;;;;;;;265.13;29.98;;;;;;;;;;5044710;28;20052;-69
2022/12/10 10:00:48;;;;;;;240.38;32.05;;;;;;;;;;5045427;28;20131;-70
2022/12/10 10:03:16;;;;;;;247.57;31.42;;;;;;;;;;5030968;28;20048;-70
2022/12/10 10:05:45;;;;;;;203.02;31.15;;;;;;;;;;5048465;28;20053;-71
2022/12/10 10:08:14;;;;;;;214.48;29.77;;;;;;;;;;5046625;28;20107;-69
2022/12/10 10:10:43;;;;;;;170.15;27.45;;;;;;;;;;5046533;28;20583;-70
2022/12/10 10:13:17;;;;;;;195.70;29.70;;;;;;;;;;5044933;28;20132;-70
2022/12/10 10:15:45;;;;;;;272.63;30.83;;;;;;;;;;5044655;28;20052;-71
2022/12/10 10:18:16;;;;;;;252.48;33.53;;;;;;;;;;5044705;28;20059;-70
2022/12/10 10:20:43;;;;;;;263.95;33.20;;;;;;;;;;5045200;28;20495;-70
2022/12/10 10:23:14;;;;;;;234.77;32.05;;;;;;;;;;5027287;28;20047;-70
2022/12/10 10:25:41;;;;;;;274.97;32.60;;;;;;;;;;5027013;28;20057;-70
2022/12/10 10:28:13;;;;;;;213.38;29.55;;;;;;;;;;5026282;28;20478;-71
2022/12/10 10:30:43;;;;;;;182.93;26.63;;;;;;;;;;5034264;28;20092;-70
2022/12/10 10:33:12;;;;;;;171.18;29.02;;;;;;;;;;5028483;28;20134;-70
2022/12/10 10:35:44;;;;;;;228.10;28.92;;;;;;;;;;5051745;28;20088;-70
2022/12/10 10:38:18;;;;;;;172.30;29.75;;;;;;;;;;5045220;28;20136;-70
2022/12/10 10:40:46;;;;;;;152.82;29.02;;;;;;;;;;5048113;28;20055;-70
2022/12/10 10:43:19;;;;;;;203.18;31.58;;;;;;;;;;5067089;28;20392;-71
2022/12/10 10:45:49;;;;;;;245.50;32.47;;;;;;;;;;5065153;28;20040;-70
2022/12/10 10:48:18;;;;;;;216.77;32.25;;;;;;;;;;5050512;28;20062;-70
2022/12/10 10:50:50;;;;;;;167.45;28.95;;;;;;;;;;5070174;28;20056;-70
2022/12/10 10:53:31;;;;;;;179.30;28.52;;;;;;;;;;5064074;28;20053;-70
2022/12/10 10:56:09;;;;;;;150.40;27.27;;;;;;;;;;5068038;28;20049;-70
2022/12/10 10:58:38;;;;;;;149.05;26.33;;;;;;;;;;5060693;28;20526;-71
2022/12/10 11:01:06;;;;;;;140.60;27.30;;;;;;;;;;5065179;28;20052;-70
2022/12/10 11:03:35;;;;;;;166.98;27.33;;;;;;;;;;5062717;28;20048;-69
2022/12/10 11:06:02;;;;;;;156.90;28.02;;;;;;;;;;5065171;28;20071;-70
2022/12/10 11:08:31;;;;;;;170.50;29.45;;;;;;;;;;5059866;28;20056;-70
2022/12/10 11:11:02;;;;;;;157.70;30.70;;;;;;;;;;5069815;28;20056;-70
2022/12/10 11:13:30;;;;;;;153.25;27.73;;;;;;;;;;5064174;28;20082;-70
2022/12/10 11:16:00;;;;;;;148.65;28.55;;;;;;;;;;5066747;28;20048;-70
2022/12/10 11:18:31;;;;;;;135.68;26.00;;;;;;;;;;5059913;28;20759;-71
2022/12/10 11:20:59;;;;;;;137.35;26.33;;;;;;;;;;5066244;28;20349;-71
2022/12/10 11:23:29;;;;;;;136.30;27.48;;;;;;;;;;5048399;28;20132;-70
2022/12/10 11:25:59;;;;;;;132.15;26.17;;;;;;;;;;5059809;28;20190;-70
2022/12/10 11:28:33;;;;;;;132.43;26.70;;;;;;;;;;5067783;28;20053;-70
2022/12/10 11:31:07;;;;;;;105.10;25.05;;;;;;;;;;5070820;28;20073;-71
2022/12/10 11:33:36;;;;;;;101.40;25.35;;;;;;;;;;5069189;28;20123;-70
2022/12/10 11:36:08;;;;;;;117.82;26.65;;;;;;;;;;5068716;28;21263;-71
2022/12/10 11:38:40;;;;;;;107.05;25.58;;;;;;;;;;5046719;28;20056;-70
2022/12/10 11:41:10;;;;;;;105.03;26.65;;;;;;;;;;5045737;28;20052;-70
2022/12/10 11:43:44;;;;;;;111.32;28.77;;;;;;;;;;5068930;28;20071;-70
2022/12/10 11:46:22;;;;;;;104.53;27.45;;;;;;;;;;5067593;28;20141;-71
2022/12/10 11:48:56;;;;;;;98.10;24.95;;;;;;;;;;5061864;28;20125;-70
2022/12/10 11:51:30;;;;;;;92.70;25.08;;;;;;;;;;5071472;28;20556;-70
2022/12/10 11:54:02;;;;;;;88.97;25.95;;;;;;;;;;5065557;28;20625;-70
2022/12/10 11:56:32;;;;;;;87.43;25.70;;;;;;;;;;5068199;28;20591;-71
2022/12/10 11:59:04;;;;;;;91.70;24.73;;;;;;;;;;5063169;28;20822;-71
2022/12/10 12:01:39;;;;;;;93.35;25.23;;;;;;;;;;5072308;28;20131;-71
2022/12/10 12:04:17;;;;;;;93.47;26.05;;;;;;;;;;5067888;28;20510;-70
2022/12/10 12:06:56;;;;;;;107.78;27.15;;;;;;;;;;5066841;28;20047;-71
2022/12/10 12:09:27;;;;;;;90.25;27.08;;;;;;;;;;5065780;28;20051;-70
2022/12/10 12:12:01;;;;;;;91.30;27.17;;;;;;;;;;5070449;28;20044;-69
2022/12/10 12:14:31;;;;;;;91.60;26.50;;;;;;;;;;5064697;28;20048;-70
2022/12/10 12:17:03;;;;;;;88.82;26.58;;;;;;;;;;5064501;28;20063;-70
2022/12/10 12:19:35;;;;;;;87.10;25.85;;;;;;;;;;5070817;28;20051;-70
2022/12/10 12:22:03;;;;;;;81.80;25.88;;;;;;;;;;5074918;28;20044;-70
2022/12/10 12:24:35;;;;;;;76.80;24.23;;;;;;;;;;5070501;28;20600;-70
2022/12/10 12:27:06;;;;;;;84.90;24.20;;;;;;;;;;5071283;28;20056;-70
2022/12/10 12:29:35;;;;;;;87.63;24.33;;;;;;;;;;5063882;28;20500;-70
2022/12/10 12:32:05;;;;;;;85.18;25.48;;;;;;;;;;5067646;28;20076;-71
2022/12/10 12:34:39;;;;;;;80.95;26.85;;;;;;;;;;5065928;28;20048;-70
2022/12/10 12:37:06;;;;;;;82.50;25.23;;;;;;;;;;5064977;28;20040;-71
2022/12/10 12:39:35;;;;;;;74.65;24.08;;;;;;;;;;5068611;28;20051;-70
2022/12/10 12:42:05;;;;;;;84.45;26.17;;;;;;;;;;5046981;28;20048;-71
2022/12/10 12:44:37;;;;;;;89.20;25.30;;;;;;;;;;5043892;28;20053;-71
2022/12/10 12:47:15;;;;;;;94.28;26.58;;;;;;;;;;5046804;28;20052;-71
2022/12/10 12:49:43;;;;;;;94.50;25.02;;;;;;;;;;5043152;28;20514;-71
2022/12/10 12:52:19;;;;;;;80.85;24.30;;;;;;;;;;5048195;28;20127;-70
2022/12/10 12:54:47;;;;;;;88.13;24.98;;;;;;;;;;5045613;28;20503;-71
2022/12/10 12:57:16;;;;;;;84.10;24.50;;;;;;;;;;5044035;28;20463;-71
2022/12/10 12:59:51;;;;;;;93.78;26.17;;;;;;;;;;5042906;28;20539;-70
2022/12/10 13:02:24;;;;;;;78.28;25.73;;;;;;;;;;5041180;28;20420;-70
2022/12/10 13:04:53;;;;;;;78.55;25.13;;;;;;;;;;5040031;28;20083;-71
2022/12/10 13:07:38;;;;;;;81.80;25.08;;;;;;;;;;5042389;28;20041;-70
2022/12/10 13:10:20;;;;;;;75.70;23.85;;;;;;;;;;5046595;28;20045;-71
2022/12/10 13:12:48;;;;;;;74.93;23.23;;;;;;;;;;5046039;28;20715;-71
2022/12/10 13:15:18;;;;;;;72.20;24.05;;;;;;;;;;5047480;28;20056;-71
2022/12/10 13:18:00;;;;;;;71.47;23.35;;;;;;;;;;5045598;28;20048;-70
2022/12/10 13:20:33;;;;;;;65.20;22.20;;;;;;;;;;5045983;28;20254;-70
2022/12/10 13:23:01;;;;;;;82.53;24.77;;;;;;;;;;5047914;28;20702;-70
2022/12/10 13:25:40;;;;;;;88.55;24.45;;;;;;;;;;5048638;28;20053;-70
2022/12/10 13:28:18;;;;;;;76.07;22.85;;;;;;;;;;5038549;28;20052;-70
2022/12/10 13:31:05;;;;;;;80.40;24.17;;;;;;;;;;5047183;28;20153;-70
2022/12/10 13:33:45;;;;;;;80.30;24.30;;;;;;;;;;5050373;28;20052;-71
2022/12/10 13:36:14;;;;;;;75.85;24.33;;;;;;;;;;5042935;28;20045;-70
2022/12/10 13:38:43;;;;;;;84.88;24.10;;;;;;;;;;5040788;28;20163;-71
2022/12/10 13:46:56;;;;;;;84.47;24.55;;;;;;;;;;5039342;28;20053;-71
2022/12/10 13:49:24;;;;;;;94.47;25.30;;;;;;;;;;5043620;28;20057;-71
2022/12/10 13:51:59;;;;;;;86.40;25.30;;;;;;;;;;5049805;28;20052;-70
2022/12/10 13:54:39;;;;;;;71.57;23.55;;;;;;;;;;5036993;28;20061;-71
2022/12/10 13:57:12;;;;;;;68.03;21.85;;;;;;;;;;5043005;28;20052;-71
2022/12/10 13:59:44;;;;;;;65.20;21.45;;;;;;;;;;5047734;28;20158;-70
2022/12/10 14:02:27;;;;;;;79.35;23.65;;;;;;;;;;5048970;28;20056;-70
2022/12/10 14:05:05;;;;;;;84.63;24.45;;;;;;;;;;5042248;28;20052;-71
2022/12/10 14:07:34;;;;;;;84.40;24.63;;;;;;;;;;5042432;28;20049;-71
2022/12/10 14:10:01;;;;;;;83.63;24.27;;;;;;;;;;5043923;28;20051;-71
2022/12/10 14:12:32;;;;;;;81.13;24.70;;;;;;;;;;5039402;28;20055;-70
2022/12/10 14:15:01;;;;;;;87.85;23.45;;;;;;;;;;5045893;28;20575;-71
2022/12/10 14:17:32;;;;;;;79.25;24.30;;;;;;;;;;5043714;28;20048;-71
2022/12/10 14:20:00;;;;;;;88.82;25.70;;;;;;;;;;5049732;28;20076;-71
2022/12/10 14:22:31;;;;;;;73.97;22.73;;;;;;;;;;5038495;28;20567;-71
2022/12/10 14:25:03;;;;;;;82.18;21.75;;;;;;;;;;5041237;28;20068;-70
2022/12/10 14:27:30;;;;;;;73.00;22.55;;;;;;;;;;5041520;28;20072;-71
2022/12/10 14:30:00;;;;;;;77.95;23.38;;;;;;;;;;5044181;28;20220;-70
2022/12/10 14:32:31;;;;;;;98.40;24.63;;;;;;;;;;5045142;28;20547;-70
2022/12/10 14:34:59;;;;;;;85.72;23.33;;;;;;;;;;5045273;28;20045;-70